sensor_id;sensor_type;location;lat;lon;timestamp;temperature;humidity
72484;DHT22;74199;52.014;5.430;2023-11-19T00:00:09;19.80;56.80
72484;DHT22;74199;52.014;5.430;2023-11-19T00:02:40;19.80;56.80
72484;DHT22;74199;52.014;5.430;2023-11-19T00:05:08;19.80;56.90
72484;DHT22;74199;52.014;5.430;2023-11-19T00:07:36;19.80;57.00
72484;DHT22;74199;52.014;5.430;2023-11-19T00:10:04;19.70;57.00
72484;DHT22;74199;52.014;5.430;2023-11-19T00:12:34;19.70;57.10
72484;DHT22;74199;52.014;5.430;2023-11-19T00:15:01;19.70;57.10
72484;DHT22;74199;52.014;5.430;2023-11-19T00:17:28;19.70;57.10
72484;DHT22;74199;52.014;5.430;2023-11-19T00:19:55;19.70;57.10
72484;DHT22;74199;52.014;5.430;2023-11-19T00:22:22;19.70;57.30
72484;DHT22;74199;52.014;5.430;2023-11-19T00:24:49;19.70;57.20
72484;DHT22;74199;52.014;5.430;2023-11-19T00:27:16;19.70;57.30
72484;DHT22;74199;52.014;5.430;2023-11-19T00:29:44;19.70;57.30
72484;DHT22;74199;52.014;5.430;2023-11-19T00:32:11;19.70;57.30
72484;DHT22;74199;52.014;5.430;2023-11-19T00:34:39;19.70;57.40
72484;DHT22;74199;52.014;5.430;2023-11-19T00:37:05;19.70;57.40
72484;DHT22;74199;52.014;5.430;2023-11-19T00:39:33;19.70;57.40
72484;DHT22;74199;52.014;5.430;2023-11-19T00:42:00;19.70;57.40
72484;DHT22;74199;52.014;5.430;2023-11-19T00:44:27;19.70;57.50
72484;DHT22;74199;52.014;5.430;2023-11-19T00:46:54;19.70;57.50
72484;DHT22;74199;52.014;5.430;2023-11-19T00:49:21;19.70;57.50
72484;DHT22;74199;52.014;5.430;2023-11-19T00:51:48;19.70;57.50
72484;DHT22;74199;52.014;5.430;2023-11-19T00:54:16;19.70;57.60
72484;DHT22;74199;52.014;5.430;2023-11-19T00:56:43;19.70;57.60
72484;DHT22;74199;52.014;5.430;2023-11-19T00:59:11;19.70;57.50
72484;DHT22;74199;52.014;5.430;2023-11-19T01:01:38;19.70;57.60
72484;DHT22;74199;52.014;5.430;2023-11-19T01:04:05;19.70;57.60
72484;DHT22;74199;52.014;5.430;2023-11-19T01:06:32;19.70;57.60
72484;DHT22;74199;52.014;5.430;2023-11-19T01:08:59;19.70;57.60
72484;DHT22;74199;52.014;5.430;2023-11-19T01:11:27;19.70;57.70
72484;DHT22;74199;52.014;5.430;2023-11-19T01:13:54;19.70;57.60
72484;DHT22;74199;52.014;5.430;2023-11-19T01:16:22;19.70;57.80
72484;DHT22;74199;52.014;5.430;2023-11-19T01:18:49;19.70;57.80
72484;DHT22;74199;52.014;5.430;2023-11-19T01:21:16;19.70;57.80
72484;DHT22;74199;52.014;5.430;2023-11-19T01:23:44;19.70;57.90
72484;DHT22;74199;52.014;5.430;2023-11-19T01:26:12;19.70;57.90
72484;DHT22;74199;52.014;5.430;2023-11-19T01:28:40;19.70;58.00
72484;DHT22;74199;52.014;5.430;2023-11-19T01:31:18;19.70;58.00
72484;DHT22;74199;52.014;5.430;2023-11-19T01:33:45;19.70;58.00
72484;DHT22;74199;52.014;5.430;2023-11-19T01:36:13;19.70;57.90
72484;DHT22;74199;52.014;5.430;2023-11-19T01:38:41;19.70;57.90
72484;DHT22;74199;52.014;5.430;2023-11-19T01:41:08;19.70;58.00
72484;DHT22;74199;52.014;5.430;2023-11-19T01:43:36;19.70;58.00
72484;DHT22;74199;52.014;5.430;2023-11-19T01:46:08;19.70;58.00
72484;DHT22;74199;52.014;5.430;2023-11-19T01:48:45;19.70;58.10
72484;DHT22;74199;52.014;5.430;2023-11-19T01:51:13;19.70;58.10
72484;DHT22;74199;52.014;5.430;2023-11-19T01:53:43;19.70;58.10
72484;DHT22;74199;52.014;5.430;2023-11-19T01:56:14;19.70;58.10
72484;DHT22;74199;52.014;5.430;2023-11-19T01:58:43;19.70;58.10
72484;DHT22;74199;52.014;5.430;2023-11-19T02:01:12;19.70;58.10
72484;DHT22;74199;52.014;5.430;2023-11-19T02:03:40;19.70;58.10
72484;DHT22;74199;52.014;5.430;2023-11-19T02:06:07;19.70;58.20
72484;DHT22;74199;52.014;5.430;2023-11-19T02:08:38;19.70;58.10
72484;DHT22;74199;52.014;5.430;2023-11-19T02:11:05;19.70;58.10
72484;DHT22;74199;52.014;5.430;2023-11-19T02:13:37;19.70;58.10
72484;DHT22;74199;52.014;5.430;2023-11-19T02:16:06;19.70;58.20
72484;DHT22;74199;52.014;5.430;2023-11-19T02:18:33;19.70;58.20
72484;DHT22;74199;52.014;5.430;2023-11-19T02:21:00;19.70;58.20
72484;DHT22;74199;52.014;5.430;2023-11-19T02:23:28;19.70;58.20
72484;DHT22;74199;52.014;5.430;2023-11-19T02:28:53;19.70;58.20
72484;DHT22;74199;52.014;5.430;2023-11-19T02:31:20;19.70;58.20
72484;DHT22;74199;52.014;5.430;2023-11-19T02:33:47;19.70;58.20
72484;DHT22;74199;52.014;5.430;2023-11-19T02:36:14;19.70;58.20
72484;DHT22;74199;52.014;5.430;2023-11-19T02:38:41;19.70;58.20
72484;DHT22;74199;52.014;5.430;2023-11-19T02:41:08;19.70;58.20
72484;DHT22;74199;52.014;5.430;2023-11-19T02:43:37;19.70;58.30
72484;DHT22;74199;52.014;5.430;2023-11-19T02:46:05;19.70;58.20
72484;DHT22;74199;52.014;5.430;2023-11-19T02:48:38;19.70;58.30
72484;DHT22;74199;52.014;5.430;2023-11-19T02:51:06;19.60;58.20
72484;DHT22;74199;52.014;5.430;2023-11-19T02:53:36;19.70;58.30
72484;DHT22;74199;52.014;5.430;2023-11-19T02:56:07;19.70;58.20
72484;DHT22;74199;52.014;5.430;2023-11-19T02:58:52;19.70;58.20
72484;DHT22;74199;52.014;5.430;2023-11-19T03:01:26;19.60;58.20
72484;DHT22;74199;52.014;5.430;2023-11-19T03:04:00;19.60;58.20
72484;DHT22;74199;52.014;5.430;2023-11-19T03:06:29;19.60;58.20
72484;DHT22;74199;52.014;5.430;2023-11-19T03:08:57;19.60;58.20
72484;DHT22;74199;52.014;5.430;2023-11-19T03:11:24;19.60;58.20
72484;DHT22;74199;52.014;5.430;2023-11-19T03:13:51;19.60;58.20
72484;DHT22;74199;52.014;5.430;2023-11-19T03:16:18;19.60;58.20
72484;DHT22;74199;52.014;5.430;2023-11-19T03:18:45;19.60;58.20
72484;DHT22;74199;52.014;5.430;2023-11-19T03:21:12;19.60;58.20
72484;DHT22;74199;52.014;5.430;2023-11-19T03:23:39;19.60;58.20
72484;DHT22;74199;52.014;5.430;2023-11-19T03:26:07;19.60;58.20
72484;DHT22;74199;52.014;5.430;2023-11-19T03:28:34;19.60;58.10
72484;DHT22;74199;52.014;5.430;2023-11-19T03:31:04;19.60;58.20
72484;DHT22;74199;52.014;5.430;2023-11-19T03:33:31;19.60;58.10
72484;DHT22;74199;52.014;5.430;2023-11-19T03:35:58;19.60;58.10
72484;DHT22;74199;52.014;5.430;2023-11-19T03:38:25;19.60;58.10
72484;DHT22;74199;52.014;5.430;2023-11-19T03:40:52;19.60;58.10
72484;DHT22;74199;52.014;5.430;2023-11-19T03:43:19;19.60;58.10
72484;DHT22;74199;52.014;5.430;2023-11-19T03:45:46;19.60;58.10
72484;DHT22;74199;52.014;5.430;2023-11-19T03:48:14;19.60;58.10
72484;DHT22;74199;52.014;5.430;2023-11-19T03:50:43;19.60;58.10
72484;DHT22;74199;52.014;5.430;2023-11-19T03:53:12;19.60;58.10
72484;DHT22;74199;52.014;5.430;2023-11-19T03:55:38;19.60;58.10
72484;DHT22;74199;52.014;5.430;2023-11-19T03:58:05;19.60;58.00
72484;DHT22;74199;52.014;5.430;2023-11-19T04:00:33;19.60;58.10
72484;DHT22;74199;52.014;5.430;2023-11-19T04:03:00;19.60;58.00
72484;DHT22;74199;52.014;5.430;2023-11-19T04:05:27;19.60;58.00
72484;DHT22;74199;52.014;5.430;2023-11-19T04:07:54;19.60;58.00
72484;DHT22;74199;52.014;5.430;2023-11-19T04:10:21;19.60;58.00
72484;DHT22;74199;52.014;5.430;2023-11-19T04:12:49;19.60;57.90
72484;DHT22;74199;52.014;5.430;2023-11-19T04:15:16;19.60;57.90
72484;DHT22;74199;52.014;5.430;2023-11-19T04:17:44;19.60;57.90
72484;DHT22;74199;52.014;5.430;2023-11-19T04:20:11;19.60;57.90
72484;DHT22;74199;52.014;5.430;2023-11-19T04:22:41;19.60;57.80
72484;DHT22;74199;52.014;5.430;2023-11-19T04:25:08;19.60;57.80
72484;DHT22;74199;52.014;5.430;2023-11-19T04:27:36;19.60;57.80
72484;DHT22;74199;52.014;5.430;2023-11-19T04:30:03;19.60;57.80
72484;DHT22;74199;52.014;5.430;2023-11-19T04:32:32;19.60;57.70
72484;DHT22;74199;52.014;5.430;2023-11-19T04:34:59;19.60;57.70
72484;DHT22;74199;52.014;5.430;2023-11-19T04:37:26;19.60;57.70
72484;DHT22;74199;52.014;5.430;2023-11-19T04:39:52;19.60;57.70
72484;DHT22;74199;52.014;5.430;2023-11-19T04:42:22;19.60;57.70
72484;DHT22;74199;52.014;5.430;2023-11-19T04:44:49;19.60;57.70
72484;DHT22;74199;52.014;5.430;2023-11-19T04:47:16;19.60;57.60
72484;DHT22;74199;52.014;5.430;2023-11-19T04:49:43;19.60;57.60
72484;DHT22;74199;52.014;5.430;2023-11-19T04:52:10;19.60;57.50
72484;DHT22;74199;52.014;5.430;2023-11-19T04:54:42;19.60;57.50
72484;DHT22;74199;52.014;5.430;2023-11-19T04:57:12;19.60;57.50
72484;DHT22;74199;52.014;5.430;2023-11-19T04:59:39;19.60;57.50
72484;DHT22;74199;52.014;5.430;2023-11-19T05:02:06;19.60;57.40
72484;DHT22;74199;52.014;5.430;2023-11-19T05:04:33;19.70;57.40
72484;DHT22;74199;52.014;5.430;2023-11-19T05:07:00;19.70;57.30
72484;DHT22;74199;52.014;5.430;2023-11-19T05:09:27;19.70;57.30
72484;DHT22;74199;52.014;5.430;2023-11-19T05:11:54;19.60;57.30
72484;DHT22;74199;52.014;5.430;2023-11-19T05:14:21;19.70;57.20
72484;DHT22;74199;52.014;5.430;2023-11-19T05:16:48;19.70;57.20
72484;DHT22;74199;52.014;5.430;2023-11-19T05:19:16;19.70;57.20
72484;DHT22;74199;52.014;5.430;2023-11-19T05:21:43;19.70;57.20
72484;DHT22;74199;52.014;5.430;2023-11-19T05:24:11;19.70;57.10
72484;DHT22;74199;52.014;5.430;2023-11-19T05:26:40;19.70;57.10
72484;DHT22;74199;52.014;5.430;2023-11-19T05:29:07;19.70;57.10
72484;DHT22;74199;52.014;5.430;2023-11-19T05:31:34;19.70;57.10
72484;DHT22;74199;52.014;5.430;2023-11-19T05:34:03;19.70;57.00
72484;DHT22;74199;52.014;5.430;2023-11-19T05:36:31;19.70;57.00
72484;DHT22;74199;52.014;5.430;2023-11-19T05:38:58;19.70;57.00
72484;DHT22;74199;52.014;5.430;2023-11-19T05:41:25;19.70;56.90
72484;DHT22;74199;52.014;5.430;2023-11-19T05:43:52;19.70;56.90
72484;DHT22;74199;52.014;5.430;2023-11-19T05:46:19;19.70;56.90
72484;DHT22;74199;52.014;5.430;2023-11-19T05:48:47;19.70;56.90
72484;DHT22;74199;52.014;5.430;2023-11-19T05:51:15;19.70;56.90
72484;DHT22;74199;52.014;5.430;2023-11-19T05:53:43;19.70;56.80
72484;DHT22;74199;52.014;5.430;2023-11-19T05:56:10;19.70;56.80
72484;DHT22;74199;52.014;5.430;2023-11-19T05:58:37;19.80;56.80
72484;DHT22;74199;52.014;5.430;2023-11-19T06:01:06;19.80;56.70
72484;DHT22;74199;52.014;5.430;2023-11-19T06:03:35;19.70;56.70
72484;DHT22;74199;52.014;5.430;2023-11-19T06:06:02;19.70;56.60
72484;DHT22;74199;52.014;5.430;2023-11-19T06:08:29;19.70;56.70
72484;DHT22;74199;52.014;5.430;2023-11-19T06:10:57;19.80;56.70
72484;DHT22;74199;52.014;5.430;2023-11-19T06:13:24;19.70;56.70
72484;DHT22;74199;52.014;5.430;2023-11-19T06:15:52;19.70;56.70
72484;DHT22;74199;52.014;5.430;2023-11-19T06:18:19;19.80;56.60
72484;DHT22;74199;52.014;5.430;2023-11-19T06:20:47;19.80;56.60
72484;DHT22;74199;52.014;5.430;2023-11-19T06:23:14;19.80;56.60
72484;DHT22;74199;52.014;5.430;2023-11-19T06:25:41;19.80;56.60
72484;DHT22;74199;52.014;5.430;2023-11-19T06:28:08;19.80;56.60
72484;DHT22;74199;52.014;5.430;2023-11-19T06:30:35;19.80;56.50
72484;DHT22;74199;52.014;5.430;2023-11-19T06:33:03;19.80;56.50
72484;DHT22;74199;52.014;5.430;2023-11-19T06:35:30;19.70;56.50
72484;DHT22;74199;52.014;5.430;2023-11-19T06:38:03;19.70;56.50
72484;DHT22;74199;52.014;5.430;2023-11-19T06:40:34;19.70;56.50
72484;DHT22;74199;52.014;5.430;2023-11-19T06:43:04;19.70;56.50
72484;DHT22;74199;52.014;5.430;2023-11-19T06:45:32;19.80;56.50
72484;DHT22;74199;52.014;5.430;2023-11-19T06:48:01;19.70;56.40
72484;DHT22;74199;52.014;5.430;2023-11-19T06:50:33;19.80;56.30
72484;DHT22;74199;52.014;5.430;2023-11-19T06:53:00;19.70;56.40
72484;DHT22;74199;52.014;5.430;2023-11-19T06:55:27;19.70;56.40
72484;DHT22;74199;52.014;5.430;2023-11-19T06:57:54;19.70;56.40
72484;DHT22;74199;52.014;5.430;2023-11-19T07:00:21;19.70;56.30
72484;DHT22;74199;52.014;5.430;2023-11-19T07:02:48;19.70;56.40
72484;DHT22;74199;52.014;5.430;2023-11-19T07:05:16;19.80;56.30
72484;DHT22;74199;52.014;5.430;2023-11-19T07:07:43;19.70;56.10
72484;DHT22;74199;52.014;5.430;2023-11-19T07:10:12;19.50;55.60
72484;DHT22;74199;52.014;5.430;2023-11-19T07:12:39;19.40;55.90
72484;DHT22;74199;52.014;5.430;2023-11-19T07:15:06;19.30;56.20
72484;DHT22;74199;52.014;5.430;2023-11-19T07:17:34;19.20;56.40
72484;DHT22;74199;52.014;5.430;2023-11-19T07:20:02;19.20;56.60
72484;DHT22;74199;52.014;5.430;2023-11-19T07:22:29;19.20;56.70
72484;DHT22;74199;52.014;5.430;2023-11-19T07:24:58;19.30;56.80
72484;DHT22;74199;52.014;5.430;2023-11-19T07:27:25;19.30;56.80
72484;DHT22;74199;52.014;5.430;2023-11-19T07:29:52;19.30;57.00
72484;DHT22;74199;52.014;5.430;2023-11-19T07:32:19;19.40;56.90
72484;DHT22;74199;52.014;5.430;2023-11-19T07:34:46;19.40;56.90
72484;DHT22;74199;52.014;5.430;2023-11-19T07:37:13;19.40;56.90
72484;DHT22;74199;52.014;5.430;2023-11-19T07:39:40;19.40;56.90
72484;DHT22;74199;52.014;5.430;2023-11-19T07:42:08;19.40;56.90
72484;DHT22;74199;52.014;5.430;2023-11-19T07:44:36;19.50;56.90
72484;DHT22;74199;52.014;5.430;2023-11-19T07:47:03;19.50;56.80
72484;DHT22;74199;52.014;5.430;2023-11-19T07:49:31;19.50;56.80
72484;DHT22;74199;52.014;5.430;2023-11-19T07:51:58;19.50;56.80
72484;DHT22;74199;52.014;5.430;2023-11-19T07:54:25;19.50;56.70
72484;DHT22;74199;52.014;5.430;2023-11-19T07:56:52;19.60;56.70
72484;DHT22;74199;52.014;5.430;2023-11-19T07:59:19;19.60;56.60
72484;DHT22;74199;52.014;5.430;2023-11-19T08:01:46;19.60;56.70
72484;DHT22;74199;52.014;5.430;2023-11-19T08:04:13;19.60;56.60
72484;DHT22;74199;52.014;5.430;2023-11-19T08:06:40;19.60;56.50
72484;DHT22;74199;52.014;5.430;2023-11-19T08:09:07;19.60;56.50
72484;DHT22;74199;52.014;5.430;2023-11-19T08:11:43;19.70;56.50
72484;DHT22;74199;52.014;5.430;2023-11-19T08:14:10;19.70;56.50
72484;DHT22;74199;52.014;5.430;2023-11-19T08:16:39;19.70;56.40
72484;DHT22;74199;52.014;5.430;2023-11-19T08:19:06;19.70;56.40
72484;DHT22;74199;52.014;5.430;2023-11-19T08:21:33;19.70;56.40
72484;DHT22;74199;52.014;5.430;2023-11-19T08:24:00;19.70;56.30
72484;DHT22;74199;52.014;5.430;2023-11-19T08:26:27;19.70;56.30
72484;DHT22;74199;52.014;5.430;2023-11-19T08:28:54;19.70;56.30
72484;DHT22;74199;52.014;5.430;2023-11-19T08:31:21;19.70;56.30
72484;DHT22;74199;52.014;5.430;2023-11-19T08:33:47;19.70;56.30
72484;DHT22;74199;52.014;5.430;2023-11-19T08:36:17;19.70;56.30
72484;DHT22;74199;52.014;5.430;2023-11-19T08:38:44;19.80;56.30
72484;DHT22;74199;52.014;5.430;2023-11-19T08:41:12;19.80;56.20
72484;DHT22;74199;52.014;5.430;2023-11-19T08:43:39;19.80;56.20
72484;DHT22;74199;52.014;5.430;2023-11-19T08:46:10;19.80;56.20
72484;DHT22;74199;52.014;5.430;2023-11-19T08:48:38;19.80;56.20
72484;DHT22;74199;52.014;5.430;2023-11-19T08:51:05;19.80;56.20
72484;DHT22;74199;52.014;5.430;2023-11-19T08:53:33;19.80;56.20
72484;DHT22;74199;52.014;5.430;2023-11-19T08:56:00;19.80;56.30
72484;DHT22;74199;52.014;5.430;2023-11-19T08:58:29;19.80;56.40
72484;DHT22;74199;52.014;5.430;2023-11-19T09:00:56;19.80;56.30
72484;DHT22;74199;52.014;5.430;2023-11-19T09:03:23;19.80;56.30
72484;DHT22;74199;52.014;5.430;2023-11-19T09:05:50;19.80;56.40
72484;DHT22;74199;52.014;5.430;2023-11-19T09:08:18;19.70;56.40
72484;DHT22;74199;52.014;5.430;2023-11-19T09:10:45;19.80;56.40
72484;DHT22;74199;52.014;5.430;2023-11-19T09:13:12;19.80;56.40
72484;DHT22;74199;52.014;5.430;2023-11-19T09:15:39;19.80;56.40
72484;DHT22;74199;52.014;5.430;2023-11-19T09:18:06;19.80;56.30
72484;DHT22;74199;52.014;5.430;2023-11-19T09:20:33;19.80;56.30
72484;DHT22;74199;52.014;5.430;2023-11-19T09:23:05;19.80;56.20
72484;DHT22;74199;52.014;5.430;2023-11-19T09:25:36;19.80;56.20
72484;DHT22;74199;52.014;5.430;2023-11-19T09:28:06;19.90;56.20
72484;DHT22;74199;52.014;5.430;2023-11-19T09:30:35;19.90;56.20
72484;DHT22;74199;52.014;5.430;2023-11-19T09:33:02;19.90;56.20
72484;DHT22;74199;52.014;5.430;2023-11-19T09:35:29;19.90;56.20
72484;DHT22;74199;52.014;5.430;2023-11-19T09:37:56;19.90;56.20
72484;DHT22;74199;52.014;5.430;2023-11-19T09:40:23;19.90;56.10
72484;DHT22;74199;52.014;5.430;2023-11-19T09:42:50;19.90;56.20
72484;DHT22;74199;52.014;5.430;2023-11-19T09:45:17;19.90;56.20
72484;DHT22;74199;52.014;5.430;2023-11-19T09:47:47;19.90;56.10
72484;DHT22;74199;52.014;5.430;2023-11-19T09:50:19;19.90;56.10
72484;DHT22;74199;52.014;5.430;2023-11-19T09:52:47;19.90;56.10
72484;DHT22;74199;52.014;5.430;2023-11-19T09:55:14;19.90;56.20
72484;DHT22;74199;52.014;5.430;2023-11-19T09:57:42;19.90;56.10
72484;DHT22;74199;52.014;5.430;2023-11-19T10:00:11;19.90;56.10
72484;DHT22;74199;52.014;5.430;2023-11-19T10:02:43;19.90;56.10
72484;DHT22;74199;52.014;5.430;2023-11-19T10:05:13;19.90;56.10
72484;DHT22;74199;52.014;5.430;2023-11-19T10:07:42;19.90;56.00
72484;DHT22;74199;52.014;5.430;2023-11-19T10:10:10;19.90;56.00
72484;DHT22;74199;52.014;5.430;2023-11-19T10:12:41;19.90;55.90
72484;DHT22;74199;52.014;5.430;2023-11-19T10:15:24;19.90;56.00
72484;DHT22;74199;52.014;5.430;2023-11-19T10:17:57;19.90;56.00
72484;DHT22;74199;52.014;5.430;2023-11-19T10:20:25;19.90;56.00
72484;DHT22;74199;52.014;5.430;2023-11-19T10:22:53;19.90;56.10
72484;DHT22;74199;52.014;5.430;2023-11-19T10:25:22;19.90;56.00
72484;DHT22;74199;52.014;5.430;2023-11-19T10:27:51;19.80;56.00
72484;DHT22;74199;52.014;5.430;2023-11-19T10:30:22;19.80;56.10
72484;DHT22;74199;52.014;5.430;2023-11-19T10:33:09;19.80;56.00
72484;DHT22;74199;52.014;5.430;2023-11-19T10:35:54;19.80;56.00
72484;DHT22;74199;52.014;5.430;2023-11-19T10:38:25;19.90;56.00
72484;DHT22;74199;52.014;5.430;2023-11-19T10:40:53;19.80;56.00
72484;DHT22;74199;52.014;5.430;2023-11-19T10:43:21;19.80;55.90
72484;DHT22;74199;52.014;5.430;2023-11-19T10:45:52;19.90;55.90
72484;DHT22;74199;52.014;5.430;2023-11-19T10:48:19;19.90;55.90
72484;DHT22;74199;52.014;5.430;2023-11-19T10:50:53;19.90;55.90
72484;DHT22;74199;52.014;5.430;2023-11-19T10:53:23;19.80;55.80
72484;DHT22;74199;52.014;5.430;2023-11-19T10:55:54;19.80;55.70
72484;DHT22;74199;52.014;5.430;2023-11-19T10:58:22;19.80;55.70
72484;DHT22;74199;52.014;5.430;2023-11-19T11:00:55;19.80;55.90
72484;DHT22;74199;52.014;5.430;2023-11-19T11:03:25;19.80;56.10
72484;DHT22;74199;52.014;5.430;2023-11-19T11:05:54;19.80;56.10
72484;DHT22;74199;52.014;5.430;2023-11-19T11:08:21;19.80;56.20
72484;DHT22;74199;52.014;5.430;2023-11-19T11:10:55;19.80;56.10
72484;DHT22;74199;52.014;5.430;2023-11-19T11:13:25;19.80;56.10
72484;DHT22;74199;52.014;5.430;2023-11-19T11:15:55;19.80;56.10
72484;DHT22;74199;52.014;5.430;2023-11-19T11:18:25;19.80;56.10
72484;DHT22;74199;52.014;5.430;2023-11-19T11:21:02;19.80;56.10
72484;DHT22;74199;52.014;5.430;2023-11-19T11:26:30;19.80;56.10
72484;DHT22;74199;52.014;5.430;2023-11-19T11:29:05;19.80;56.10
72484;DHT22;74199;52.014;5.430;2023-11-19T11:31:42;19.80;56.10
72484;DHT22;74199;52.014;5.430;2023-11-19T11:36:58;19.80;56.10
72484;DHT22;74199;52.014;5.430;2023-11-19T11:39:29;19.80;56.20
72484;DHT22;74199;52.014;5.430;2023-11-19T11:45:05;19.80;56.20
72484;DHT22;74199;52.014;5.430;2023-11-19T11:50:19;19.80;56.20
72484;DHT22;74199;52.014;5.430;2023-11-19T11:55:36;19.80;56.10
72484;DHT22;74199;52.014;5.430;2023-11-19T11:58:06;19.80;56.20
72484;DHT22;74199;52.014;5.430;2023-11-19T12:00:38;19.80;56.20
72484;DHT22;74199;52.014;5.430;2023-11-19T12:03:06;19.80;56.20
72484;DHT22;74199;52.014;5.430;2023-11-19T12:05:38;19.80;56.20
72484;DHT22;74199;52.014;5.430;2023-11-19T12:08:07;19.80;56.10
72484;DHT22;74199;52.014;5.430;2023-11-19T12:10:48;19.80;56.10
72484;DHT22;74199;52.014;5.430;2023-11-19T12:13:16;19.80;56.20
72484;DHT22;74199;52.014;5.430;2023-11-19T12:18:29;19.80;56.20
72484;DHT22;74199;52.014;5.430;2023-11-19T12:20:57;19.80;56.30
72484;DHT22;74199;52.014;5.430;2023-11-19T12:23:24;19.80;56.40
72484;DHT22;74199;52.014;5.430;2023-11-19T12:25:51;19.80;56.40
72484;DHT22;74199;52.014;5.430;2023-11-19T12:28:19;19.80;56.40
72484;DHT22;74199;52.014;5.430;2023-11-19T12:30:46;19.80;56.40
72484;DHT22;74199;52.014;5.430;2023-11-19T12:33:15;19.80;56.30
72484;DHT22;74199;52.014;5.430;2023-11-19T12:35:44;19.80;56.30
72484;DHT22;74199;52.014;5.430;2023-11-19T12:38:24;19.80;56.30
72484;DHT22;74199;52.014;5.430;2023-11-19T12:41:07;19.80;56.30
72484;DHT22;74199;52.014;5.430;2023-11-19T12:43:34;19.80;56.30
72484;DHT22;74199;52.014;5.430;2023-11-19T12:46:21;19.90;56.30
72484;DHT22;74199;52.014;5.430;2023-11-19T12:48:49;19.90;56.30
72484;DHT22;74199;52.014;5.430;2023-11-19T12:51:16;19.80;56.30
72484;DHT22;74199;52.014;5.430;2023-11-19T12:53:51;19.90;56.30
72484;DHT22;74199;52.014;5.430;2023-11-19T12:56:21;19.90;56.30
72484;DHT22;74199;52.014;5.430;2023-11-19T12:58:49;19.90;56.30
72484;DHT22;74199;52.014;5.430;2023-11-19T13:01:20;19.90;56.30
72484;DHT22;74199;52.014;5.430;2023-11-19T13:03:48;19.90;56.40
72484;DHT22;74199;52.014;5.430;2023-11-19T13:06:18;19.90;56.50
72484;DHT22;74199;52.014;5.430;2023-11-19T13:08:49;19.90;56.40
72484;DHT22;74199;52.014;5.430;2023-11-19T13:11:35;19.80;56.20
72484;DHT22;74199;52.014;5.430;2023-11-19T13:14:05;19.80;56.10
72484;DHT22;74199;52.014;5.430;2023-11-19T13:16:37;19.70;56.20
72484;DHT22;74199;52.014;5.430;2023-11-19T13:19:05;19.70;56.30
72484;DHT22;74199;52.014;5.430;2023-11-19T13:21:32;19.70;56.40
72484;DHT22;74199;52.014;5.430;2023-11-19T13:23:59;19.70;56.50
72484;DHT22;74199;52.014;5.430;2023-11-19T13:26:26;19.70;56.60
72484;DHT22;74199;52.014;5.430;2023-11-19T13:28:53;19.70;56.60
72484;DHT22;74199;52.014;5.430;2023-11-19T13:31:20;19.70;56.70
72484;DHT22;74199;52.014;5.430;2023-11-19T13:33:47;19.70;56.80
72484;DHT22;74199;52.014;5.430;2023-11-19T13:36:15;19.70;56.80
72484;DHT22;74199;52.014;5.430;2023-11-19T13:38:43;19.70;56.80
72484;DHT22;74199;52.014;5.430;2023-11-19T13:41:14;19.70;56.90
72484;DHT22;74199;52.014;5.430;2023-11-19T13:43:41;19.70;56.90
72484;DHT22;74199;52.014;5.430;2023-11-19T13:46:08;19.70;57.00
72484;DHT22;74199;52.014;5.430;2023-11-19T13:48:38;19.70;57.10
72484;DHT22;74199;52.014;5.430;2023-11-19T13:51:06;19.70;57.10
72484;DHT22;74199;52.014;5.430;2023-11-19T13:53:33;19.70;57.20
72484;DHT22;74199;52.014;5.430;2023-11-19T13:56:17;19.70;57.30
72484;DHT22;74199;52.014;5.430;2023-11-19T13:58:44;19.70;57.50
72484;DHT22;74199;52.014;5.430;2023-11-19T14:01:11;19.70;57.60
72484;DHT22;74199;52.014;5.430;2023-11-19T14:03:40;19.80;57.70
72484;DHT22;74199;52.014;5.430;2023-11-19T14:06:08;19.80;57.80
72484;DHT22;74199;52.014;5.430;2023-11-19T14:08:36;19.80;57.90
72484;DHT22;74199;52.014;5.430;2023-11-19T14:11:03;19.80;57.80
72484;DHT22;74199;52.014;5.430;2023-11-19T14:13:30;19.80;57.90
72484;DHT22;74199;52.014;5.430;2023-11-19T14:15:57;19.90;57.90
72484;DHT22;74199;52.014;5.430;2023-11-19T14:18:24;19.90;57.90
72484;DHT22;74199;52.014;5.430;2023-11-19T14:20:51;19.90;57.90
72484;DHT22;74199;52.014;5.430;2023-11-19T14:23:18;19.90;57.90
72484;DHT22;74199;52.014;5.430;2023-11-19T14:25:45;19.90;57.80
72484;DHT22;74199;52.014;5.430;2023-11-19T14:28:11;19.90;57.80
72484;DHT22;74199;52.014;5.430;2023-11-19T14:30:38;19.90;57.80
72484;DHT22;74199;52.014;5.430;2023-11-19T14:33:05;19.80;57.70
72484;DHT22;74199;52.014;5.430;2023-11-19T14:35:32;19.80;57.70
72484;DHT22;74199;52.014;5.430;2023-11-19T14:38:00;19.80;57.60
72484;DHT22;74199;52.014;5.430;2023-11-19T14:40:31;19.80;57.60
72484;DHT22;74199;52.014;5.430;2023-11-19T14:43:01;19.80;57.60
72484;DHT22;74199;52.014;5.430;2023-11-19T14:45:29;19.80;57.50
72484;DHT22;74199;52.014;5.430;2023-11-19T14:48:05;19.80;57.50
72484;DHT22;74199;52.014;5.430;2023-11-19T14:50:32;19.80;57.50
72484;DHT22;74199;52.014;5.430;2023-11-19T14:52:59;19.80;57.50
72484;DHT22;74199;52.014;5.430;2023-11-19T14:55:26;19.80;57.50
72484;DHT22;74199;52.014;5.430;2023-11-19T14:57:53;19.80;57.50
72484;DHT22;74199;52.014;5.430;2023-11-19T15:00:33;19.80;57.50
72484;DHT22;74199;52.014;5.430;2023-11-19T15:03:00;19.80;57.40
72484;DHT22;74199;52.014;5.430;2023-11-19T15:05:28;19.80;57.40
72484;DHT22;74199;52.014;5.430;2023-11-19T15:07:56;19.80;57.40
72484;DHT22;74199;52.014;5.430;2023-11-19T15:10:23;19.70;57.40
72484;DHT22;74199;52.014;5.430;2023-11-19T15:12:51;19.70;57.40
72484;DHT22;74199;52.014;5.430;2023-11-19T15:15:20;19.70;57.30
72484;DHT22;74199;52.014;5.430;2023-11-19T15:17:51;19.70;57.30
72484;DHT22;74199;52.014;5.430;2023-11-19T15:20:18;19.70;57.30
72484;DHT22;74199;52.014;5.430;2023-11-19T15:22:46;19.70;57.30
72484;DHT22;74199;52.014;5.430;2023-11-19T15:25:13;19.70;57.20
72484;DHT22;74199;52.014;5.430;2023-11-19T15:27:40;19.70;57.30
72484;DHT22;74199;52.014;5.430;2023-11-19T15:30:07;19.70;57.30
72484;DHT22;74199;52.014;5.430;2023-11-19T15:32:37;19.70;57.20
72484;DHT22;74199;52.014;5.430;2023-11-19T15:35:06;19.70;57.30
72484;DHT22;74199;52.014;5.430;2023-11-19T15:37:34;19.70;57.20
72484;DHT22;74199;52.014;5.430;2023-11-19T15:40:02;19.70;57.20
72484;DHT22;74199;52.014;5.430;2023-11-19T15:42:32;19.70;57.30
72484;DHT22;74199;52.014;5.430;2023-11-19T15:44:59;19.70;57.30
72484;DHT22;74199;52.014;5.430;2023-11-19T15:47:26;19.70;57.30
72484;DHT22;74199;52.014;5.430;2023-11-19T15:49:53;19.70;57.20
72484;DHT22;74199;52.014;5.430;2023-11-19T15:52:20;19.70;57.20
72484;DHT22;74199;52.014;5.430;2023-11-19T15:54:46;19.70;57.20
72484;DHT22;74199;52.014;5.430;2023-11-19T15:57:15;19.70;57.20